Kogalym, Russia
Current Conditions -  °F | °C
As of 11:00 AM on Saturday 25 Oct 2014 (Local Time) from USRR Reporting Station
Snow Showers Snow Showers  
Wind Chill:   Ceiling: Unl
Heat Index: 12°   Visibility: 4mi
Dew Point:   Wind: 9mph
Humidity: 73%   Direction: 30°NNE
Pressure: 29.71"   Gusts: 16mph
Location:  62.03°N, 74.5°E
Report Text: USRR 250600Z 03004G07MPS 350V060 6000 -SHSN SCT017CB SCT048M11/M15 Q1006 TEMPO 2000 SHSN RMK OBST OBSC QFE750 07////50
Loading
Personal Weather Stations






























Interactive Weather Map
Tropical Storm Tracking
New forecast layout! Learn more

10-Day Weather Forecast

Advertisements
Track Severe Weather on mobile